createdAt,value
2019-05-15T00:00:40.342Z,7.77
2019-05-15T00:02:22.853Z,7.73
2019-05-15T00:04:04.005Z,7.72
2019-05-15T00:05:45.860Z,7.71
2019-05-15T00:07:29.331Z,7.69
2019-05-15T00:09:08.931Z,7.63
2019-05-15T00:10:48.767Z,7.6
2019-05-15T00:12:28.658Z,7.56
2019-05-15T00:14:08.731Z,7.52
2019-05-15T00:15:48.808Z,7.5
2019-05-15T00:17:28.614Z,7.49
2019-05-15T00:19:08.772Z,7.48
2019-05-15T00:20:49.552Z,7.47
2019-05-15T00:22:35.781Z,8.04
2019-05-15T00:24:17.846Z,7.42
2019-05-15T00:25:58.410Z,7.41
2019-05-15T00:27:38.967Z,7.39
2019-05-15T00:29:19.643Z,7.33
2019-05-15T00:30:59.683Z,7.28
2019-05-15T00:32:39.651Z,7.23
2019-05-15T00:34:18.883Z,7.19
2019-05-15T00:35:58.943Z,7.15
2019-05-15T00:37:39.012Z,7.15
2019-05-15T00:39:19.038Z,7.13
2019-05-15T00:40:58.661Z,7.12
2019-05-15T00:42:38.564Z,7.09
2019-05-15T00:44:18.828Z,7.64
2019-05-15T00:45:58.531Z,7
2019-05-15T00:47:39.593Z,6.94
2019-05-15T00:49:19.170Z,6.91
2019-05-15T00:50:58.966Z,6.86
2019-05-15T00:52:39.026Z,6.85
2019-05-15T00:54:19.131Z,6.85
2019-05-15T00:55:58.939Z,6.85
2019-05-15T00:57:39.118Z,6.83
2019-05-15T00:59:25.902Z,6.82
2019-05-15T01:01:10.194Z,7.41
2019-05-15T01:02:49.638Z,6.81
2019-05-15T01:04:29.162Z,6.8
2019-05-15T01:06:08.598Z,6.79
2019-05-15T01:07:48.092Z,6.79
2019-05-15T01:09:29.170Z,6.79
2019-05-15T01:11:09.291Z,6.76
2019-05-15T01:12:48.765Z,6.75
2019-05-15T01:14:28.286Z,6.75
2019-05-15T01:16:09.086Z,6.73
2019-05-15T01:17:49.232Z,6.74
2019-05-15T01:19:28.875Z,6.73
2019-05-15T01:21:08.568Z,6.72
2019-05-15T01:22:48.471Z,6.66
2019-05-15T01:24:29.519Z,6.64
2019-05-15T01:26:10.025Z,6.55
2019-05-15T01:27:49.491Z,6.53
2019-05-15T01:29:40.355Z,6.45
2019-05-15T01:31:25.584Z,6.39
2019-05-15T01:33:08.250Z,6.36
2019-05-15T01:34:49.009Z,6.33
2019-05-15T01:36:28.908Z,6.29
2019-05-15T01:38:08.515Z,6.29
2019-05-15T01:39:48.516Z,6.26
2019-05-15T01:41:28.143Z,6.24
2019-05-15T01:43:09.013Z,6.17
2019-05-15T01:45:01.434Z,6.75
2019-05-15T01:46:43.317Z,6.04
2019-05-15T01:48:24.666Z,6.01
2019-05-15T01:50:06.339Z,5.97
2019-05-15T01:51:55.934Z,6.58
2019-05-15T01:53:38.455Z,5.89
2019-05-15T01:55:18.257Z,5.85
2019-05-15T01:56:58.720Z,5.83
2019-05-15T01:58:38.445Z,5.79
2019-05-15T02:00:18.799Z,5.77
2019-05-15T02:02:09.652Z,6.41
2019-05-15T02:03:49.232Z,5.77
2019-05-15T02:05:28.906Z,5.76
2019-05-15T02:07:08.398Z,5.78
2019-05-15T02:08:49.607Z,5.77
2019-05-15T02:10:29.371Z,5.75
2019-05-15T02:12:08.830Z,5.75
2019-05-15T02:13:48.396Z,5.72
2019-05-15T02:15:28.487Z,5.7
2019-05-15T02:17:08.538Z,5.71
2019-05-15T02:18:54.850Z,6.36
2019-05-15T02:20:38.180Z,5.75
2019-05-15T02:22:18.890Z,5.76
2019-05-15T02:23:58.815Z,5.76
2019-05-15T02:25:38.852Z,5.76
2019-05-15T02:27:18.731Z,5.78
2019-05-15T02:29:01.733Z,6.41
2019-05-15T02:30:43.017Z,5.8
2019-05-15T02:32:29.872Z,5.79
2019-05-15T02:34:10.309Z,5.81
2019-05-15T02:35:50.466Z,5.77
2019-05-15T02:37:30.109Z,5.75
2019-05-15T02:39:09.489Z,5.74
2019-05-15T02:40:49.461Z,5.69
2019-05-15T02:42:29.343Z,5.67
2019-05-15T02:44:10.858Z,5.64
2019-05-15T02:45:51.153Z,5.62
2019-05-15T02:47:30.122Z,5.57
2019-05-15T02:49:09.559Z,5.52
2019-05-15T02:50:50.036Z,5.47
2019-05-15T02:52:29.878Z,5.47
2019-05-15T02:54:10.321Z,5.49
2019-05-15T02:56:01.996Z,6.11
2019-05-15T02:57:44.210Z,5.46
2019-05-15T02:59:28.829Z,5.42
2019-05-15T03:01:09.234Z,5.41
2019-05-15T03:02:49.795Z,5.39
2019-05-15T03:04:29.544Z,5.41
2019-05-15T03:06:09.890Z,5.38
2019-05-15T03:07:49.530Z,5.38
2019-05-15T03:09:29.696Z,5.37
2019-05-15T03:11:09.886Z,5.36
2019-05-15T03:12:49.644Z,5.41
2019-05-15T03:14:29.343Z,5.46
2019-05-15T03:16:14.454Z,6.06
2019-05-15T03:18:00.088Z,5.48
2019-05-15T03:19:39.532Z,5.5
2019-05-15T03:21:19.168Z,5.5
2019-05-15T03:22:59.680Z,5.49
2019-05-15T03:24:39.750Z,5.5
2019-05-15T03:26:19.842Z,5.46
2019-05-15T03:27:59.607Z,5.45
2019-05-15T03:29:40.240Z,5.46
2019-05-15T03:31:39.861Z,5.47
2019-05-15T03:34:18.892Z,5.46
2019-05-15T03:36:31.010Z,5.18
2019-05-15T03:38:10.393Z,5.51
2019-05-15T03:39:51.647Z,5.49
2019-05-15T03:41:34.388Z,5.49
2019-05-15T03:43:18.555Z,5.49
2019-05-15T03:44:59.542Z,5.47
2019-05-15T03:46:39.939Z,5.48
2019-05-15T03:48:19.864Z,5.45
2019-05-15T03:50:00.050Z,5.45
2019-05-15T03:51:42.641Z,5.45
2019-05-15T03:53:29.750Z,5.38
2019-05-15T03:55:10.555Z,5.97
2019-05-15T03:56:53.460Z,5.35
2019-05-15T03:58:34.969Z,5.34
2019-05-15T04:00:19.469Z,5.31
2019-05-15T04:01:59.885Z,5.3
2019-05-15T04:03:39.529Z,5.3
2019-05-15T04:05:19.832Z,5.33
2019-05-15T04:06:59.955Z,5.31
2019-05-15T04:08:39.574Z,5.33
2019-05-15T04:10:19.909Z,5.36
2019-05-15T04:12:00.079Z,5.37
2019-05-15T04:13:40.004Z,5.38
2019-05-15T04:15:19.521Z,5.41
2019-05-15T04:16:59.493Z,5.46
2019-05-15T04:18:39.674Z,5.49
2019-05-15T04:20:20.009Z,5.5
2019-05-15T04:22:00.118Z,6.15
2019-05-15T04:23:39.898Z,5.6
2019-05-15T04:25:19.258Z,5.62
2019-05-15T04:26:59.796Z,5.62
2019-05-15T04:28:49.380Z,5.62
2019-05-15T04:30:33.398Z,6.28
2019-05-15T04:32:15.661Z,5.69
2019-05-15T04:33:59.306Z,5.67
2019-05-15T04:35:39.895Z,5.71
2019-05-15T04:37:19.792Z,5.77
2019-05-15T04:38:59.248Z,5.82
2019-05-15T04:40:39.594Z,5.85
2019-05-15T04:42:20.171Z,5.91
2019-05-15T04:44:00.033Z,5.94
2019-05-15T04:45:44.891Z,6.54
2019-05-15T04:47:30.146Z,5.97
2019-05-15T04:49:09.874Z,5.96
2019-05-15T04:50:49.763Z,6
2019-05-15T04:52:30.336Z,6.04
2019-05-15T04:54:10.135Z,6.7
2019-05-15T04:55:49.573Z,6.16
2019-05-15T04:57:32.738Z,6.25
2019-05-15T04:59:19.450Z,6.28
2019-05-15T05:01:00.047Z,6.33
2019-05-15T05:02:40.235Z,6.36
2019-05-15T05:04:19.871Z,6.42
2019-05-15T05:05:59.457Z,6.53
2019-05-15T05:07:39.360Z,6.56
2019-05-15T05:09:19.777Z,6.63
2019-05-15T05:10:59.465Z,6.73
2019-05-15T05:12:41.434Z,6.82
2019-05-15T05:14:28.313Z,7.57
2019-05-15T05:16:09.445Z,7.08
2019-05-15T05:17:49.039Z,7.19
2019-05-15T05:19:28.675Z,7.32
2019-05-15T05:21:08.078Z,7.44
2019-05-15T05:22:48.304Z,7.54
2019-05-15T05:24:28.072Z,7.65
2019-05-15T05:26:10.448Z,7.78
2019-05-15T05:27:53.129Z,7.91
2019-05-15T05:29:34.455Z,8.05
2019-05-15T05:31:14.894Z,8.17
2019-05-15T05:32:57.978Z,8.34
2019-05-15T05:34:39.068Z,8.44
2019-05-15T05:36:18.822Z,8.52
2019-05-15T05:37:58.357Z,8.67
2019-05-15T05:39:39.434Z,8.76
2019-05-15T05:41:21.129Z,9.41
2019-05-15T05:43:02.838Z,8.94
2019-05-15T05:44:44.245Z,9.07
2019-05-15T05:46:27.912Z,9.14
2019-05-15T05:48:08.799Z,7.89
2019-05-15T05:49:48.871Z,8.95
2019-05-15T05:51:28.494Z,9.07
2019-05-15T05:53:08.776Z,7.87
2019-05-15T05:54:48.951Z,9.08
2019-05-15T05:56:28.941Z,9.22
2019-05-15T05:58:08.380Z,9.25
2019-05-15T05:59:48.952Z,8.08
2019-05-15T06:01:28.630Z,9.22
2019-05-15T06:03:13.115Z,9.33
2019-05-15T06:04:58.128Z,8.14
2019-05-15T06:06:38.388Z,9.29
2019-05-15T06:08:19.432Z,8.14
2019-05-15T06:10:05.104Z,9.38
2019-05-15T06:11:48.790Z,8.26
2019-05-15T06:13:29.190Z,9.49
2019-05-15T06:15:09.148Z,8.41
2019-05-15T06:16:48.692Z,9.6
2019-05-15T06:18:28.287Z,8.45
2019-05-15T06:20:08.126Z,9.66
2019-05-15T06:21:56.550Z,9.83
2019-05-15T06:23:45.035Z,8.7
2019-05-15T06:25:48.626Z,9.59
2019-05-15T06:27:28.142Z,8.77
2019-05-15T06:29:08.810Z,9.92
2019-05-15T06:31:00.610Z,10.67
2019-05-15T06:32:40.353Z,10.2
2019-05-15T06:34:48.462Z,10.09
2019-05-15T06:36:28.795Z,10.55
2019-05-15T06:38:08.645Z,9.4
2019-05-15T06:39:48.199Z,10.67
2019-05-15T06:41:28.579Z,11.43
2019-05-15T06:43:13.993Z,10.97
2019-05-15T06:44:55.649Z,9.71
2019-05-15T06:46:41.168Z,11.45
2019-05-15T06:48:29.025Z,11.58
2019-05-15T06:50:08.546Z,11.03
2019-05-15T06:51:48.693Z,9.79
2019-05-15T06:53:28.990Z,10.88
2019-05-15T06:55:09.200Z,9.66
2019-05-15T06:56:49.332Z,10.81
2019-05-15T06:58:29.054Z,9.72
2019-05-15T07:00:08.604Z,10.9
2019-05-15T07:01:48.247Z,9.71
2019-05-15T07:03:29.299Z,10.92
2019-05-15T07:05:09.054Z,9.86
2019-05-15T07:06:49.004Z,11.16
2019-05-15T07:08:28.858Z,10.09
2019-05-15T07:10:08.920Z,11.25
2019-05-15T07:11:48.710Z,10.22
2019-05-15T07:13:28.966Z,11.51
2019-05-15T07:15:09.019Z,10.42
2019-05-15T07:16:48.863Z,10.42
2019-05-15T07:18:28.535Z,10.41
2019-05-15T07:20:08.632Z,10.36
2019-05-15T07:21:48.743Z,10.35
2019-05-15T07:23:30.530Z,10.35
2019-05-15T07:25:13.339Z,10.43
2019-05-15T07:26:55.247Z,10.44
2019-05-15T07:28:37.969Z,10.42
2019-05-15T07:30:18.702Z,10.56
2019-05-15T07:31:58.553Z,10.69
2019-05-15T07:33:42.486Z,10.69
2019-05-15T07:35:25.391Z,10.69
2019-05-15T07:37:09.627Z,10.79
2019-05-15T07:38:50.110Z,10.99
2019-05-15T07:40:30.040Z,11.04
2019-05-15T07:42:09.557Z,11.11
2019-05-15T07:43:49.512Z,11.25
2019-05-15T07:45:33.375Z,11.39
2019-05-15T07:47:19.604Z,11.56
2019-05-15T07:48:59.115Z,11.7
2019-05-15T07:50:39.019Z,11.77
2019-05-15T07:52:19.321Z,11.82
2019-05-15T07:54:02.175Z,11.79
2019-05-15T07:55:44.060Z,11.85
2019-05-15T07:57:29.690Z,11.98
2019-05-15T07:59:09.486Z,12.05
2019-05-15T08:00:49.394Z,11.96
2019-05-15T08:02:29.064Z,11.97
2019-05-15T08:04:23.055Z,12.02
2019-05-15T08:06:19.278Z,12.18
2019-05-15T08:08:05.408Z,12.35
2019-05-15T08:09:48.562Z,12.45
2019-05-15T08:11:28.586Z,12.64
2019-05-15T08:13:08.856Z,12.7
2019-05-15T08:14:50.810Z,12.55
2019-05-15T08:16:32.945Z,12.43
2019-05-15T08:18:14.394Z,12.35
2019-05-15T08:19:58.308Z,12.49
2019-05-15T08:21:38.545Z,12.64
2019-05-15T08:23:19.118Z,12.71
2019-05-15T08:24:59.192Z,12.74
2019-05-15T08:26:45.381Z,12.84
2019-05-15T08:28:28.553Z,12.94
2019-05-15T08:30:08.891Z,13.02
2019-05-15T08:31:48.619Z,13.05
2019-05-15T08:33:28.204Z,13.11
2019-05-15T08:35:08.033Z,13.12
2019-05-15T08:36:49.190Z,12.93
2019-05-15T08:38:29.027Z,12.77
2019-05-15T08:40:08.802Z,12.72
2019-05-15T08:41:48.488Z,12.76
2019-05-15T08:43:29.060Z,12.82
2019-05-15T08:45:12.959Z,12.9
2019-05-15T08:46:55.107Z,13.05
2019-05-15T08:48:38.296Z,13.21
2019-05-15T08:50:18.321Z,13.45
2019-05-15T08:51:58.366Z,13.59
2019-05-15T08:53:38.189Z,13.65
2019-05-15T08:55:19.982Z,13.66
2019-05-15T08:57:03.021Z,13.58
2019-05-15T08:58:44.986Z,13.68
2019-05-15T09:00:29.257Z,13.75
2019-05-15T09:02:08.489Z,13.9
2019-05-15T09:03:48.851Z,14.12
2019-05-15T09:05:28.616Z,14.29
2019-05-15T09:07:09.143Z,14.62
2019-05-15T09:08:49.200Z,14.88
2019-05-15T09:10:28.869Z,15.32
2019-05-15T09:12:08.420Z,15.74
2019-05-15T09:13:53.400Z,16.2
2019-05-15T09:15:39.509Z,16.42
2019-05-15T09:17:19.282Z,16.81
2019-05-15T09:18:59.224Z,17.13
2019-05-15T09:20:39.160Z,17.48
2019-05-15T09:22:18.794Z,17.74
2019-05-15T09:23:59.005Z,17.85
2019-05-15T09:25:39.030Z,17.92
2019-05-15T09:27:18.754Z,18.14
2019-05-15T09:28:58.640Z,18.41
2019-05-15T09:30:39.056Z,18.44
2019-05-15T09:32:19.775Z,18.44
2019-05-15T09:33:59.316Z,18.46
2019-05-15T09:35:39.341Z,18.55
2019-05-15T09:37:18.928Z,18.55
2019-05-15T09:38:58.554Z,18.64
2019-05-15T09:40:45.457Z,18.85
2019-05-15T09:42:28.671Z,19.02
2019-05-15T09:44:08.289Z,18.81
2019-05-15T09:45:49.199Z,18.96
2019-05-15T09:47:29.616Z,19.29
2019-05-15T09:49:09.488Z,19.36
2019-05-15T09:50:49.416Z,19.01
2019-05-15T09:52:30.038Z,18.94
2019-05-15T09:54:09.813Z,19.01
2019-05-15T09:55:49.832Z,19.16
2019-05-15T09:57:30.133Z,19.37
2019-05-15T09:59:09.888Z,19.61
2019-05-15T10:00:51.638Z,19.55
2019-05-15T10:02:31.715Z,19.7
2019-05-15T10:04:14.129Z,19.61
2019-05-15T10:05:55.526Z,19.68
2019-05-15T10:07:34.905Z,19.91
2019-05-15T10:09:18.834Z,20.25
2019-05-15T10:10:59.323Z,20.28
2019-05-15T10:12:38.754Z,20.29
2019-05-15T10:14:19.432Z,20.34
2019-05-15T10:16:02.000Z,20.29
2019-05-15T10:17:43.221Z,20.42
2019-05-15T10:19:28.972Z,20.55
2019-05-15T10:21:08.937Z,20.55
2019-05-15T10:22:48.692Z,20.68
2019-05-15T10:24:33.782Z,20.99
2019-05-15T10:26:14.422Z,21.04
2019-05-15T10:27:57.826Z,20.59
2019-05-15T10:29:38.740Z,20.22
2019-05-15T10:31:19.443Z,20.46
2019-05-15T10:32:59.291Z,20.69
2019-05-15T10:34:38.807Z,20.78
2019-05-15T10:36:18.963Z,20.81
2019-05-15T10:37:59.235Z,21.01
2019-05-15T10:39:38.961Z,21.2
2019-05-15T10:41:18.874Z,21.44
2019-05-15T10:42:59.401Z,21.36
2019-05-15T10:44:39.299Z,21.16
2019-05-15T10:46:19.116Z,21.14
2019-05-15T10:47:58.887Z,21.35
2019-05-15T10:49:38.929Z,21.62
2019-05-15T10:51:19.422Z,21.72
2019-05-15T10:52:59.075Z,21.74
2019-05-15T10:54:38.652Z,21.78
2019-05-15T10:56:18.651Z,21.87
2019-05-15T10:57:58.442Z,22.02
2019-05-15T10:59:38.274Z,22.08
2019-05-15T11:01:19.142Z,22.17
2019-05-15T11:02:58.796Z,22.06
2019-05-15T11:04:39.221Z,21.74
2019-05-15T11:06:18.442Z,21.83
2019-05-15T11:07:58.843Z,21.91
2019-05-15T11:09:40.505Z,22.19
2019-05-15T11:11:20.324Z,22.68
2019-05-15T11:13:00.116Z,22.81
2019-05-15T11:14:39.532Z,22.65
2019-05-15T11:16:21.213Z,22.6
2019-05-15T11:18:01.262Z,22.66
2019-05-15T11:19:40.845Z,22.86
2019-05-15T11:21:24.558Z,23.06
2019-05-15T11:23:04.281Z,23.36
2019-05-15T11:24:48.288Z,23.31
2019-05-15T11:26:34.206Z,23.08
2019-05-15T11:28:15.490Z,23.07
2019-05-15T11:29:54.996Z,23.01
2019-05-15T11:31:39.119Z,23.14
2019-05-15T11:33:19.249Z,23.39
2019-05-15T11:34:58.816Z,23.64
2019-05-15T11:36:42.117Z,23.72
2019-05-15T11:38:24.753Z,23.87
2019-05-15T11:40:09.837Z,24.1
2019-05-15T11:41:49.645Z,23.85
2019-05-15T11:43:29.430Z,23.88
2019-05-15T11:45:08.801Z,24.01
2019-05-15T11:46:49.546Z,24.04
2019-05-15T11:48:30.001Z,24.38
2019-05-15T11:50:09.731Z,24.46
2019-05-15T11:51:49.594Z,24.44
2019-05-15T11:53:29.057Z,24.72
2019-05-15T11:55:08.594Z,25
2019-05-15T11:56:48.912Z,24.65
2019-05-15T11:58:28.606Z,24.54
2019-05-15T12:00:14.569Z,24.57
2019-05-15T12:02:14.785Z,24.74
2019-05-15T12:03:58.489Z,24.68
2019-05-15T12:05:38.729Z,24.39
2019-05-15T12:07:18.444Z,24.4
2019-05-15T12:08:59.067Z,24.8
2019-05-15T12:10:39.123Z,24.85
2019-05-15T12:12:18.684Z,24.71
2019-05-15T12:13:58.261Z,25.05
2019-05-15T12:15:38.752Z,24.86
2019-05-15T12:17:19.007Z,24.89
2019-05-15T12:19:08.380Z,25.15
2019-05-15T12:20:54.766Z,24.88
2019-05-15T12:22:39.288Z,24.9
2019-05-15T12:26:19.089Z,24.99
2019-05-15T12:27:59.598Z,25
2019-05-15T12:29:39.878Z,25.27
2019-05-15T12:31:24.517Z,25.57
2019-05-15T12:33:04.202Z,25.33
2019-05-15T12:34:45.715Z,25.2
